Time;durP1;ratioP1;P1;durP2;ratioP2;P2;SDS_P1;SDS_P2;PMS_P1;PMS_P2;Temp;Humidity;BMP_temperature;BMP_pressure;BME280_temperature;BME280_humidity;BME280_pressure;Samples;Min_cycle;Max_cycle;Signal;HPM_P1;HPM_P2
2023/10/03 18:30:27;;;;;;;;;25.50;21.25;;;;;22.57;41.67;101786.84;107976;1283;39063;-66
2023/10/03 18:32:55;;;;;;;;;21.00;19.00;;;;;23.03;40.75;101785.27;110329;1260;46017;-64
2023/10/03 18:35:21;;;;;;;;;22.00;20.50;;;;;23.39;40.33;101786.40;109854;1260;57116;-65
2023/10/03 18:37:48;;;;;;;;;22.75;18.50;;;;;23.69;39.68;101782.53;110122;1257;59027;-64
2023/10/03 18:40:17;;;;;;;;;22.00;18.25;;;;;23.93;39.29;101783.73;110151;1262;55275;-63
2023/10/03 18:42:45;;;;;;;;;25.00;21.00;;;;;24.13;39.06;101782.45;110002;1259;50811;-63
2023/10/03 18:45:12;;;;;;;;;24.00;20.67;;;;;24.30;38.75;101784.92;110657;1257;326199;-64
2023/10/03 18:47:40;;;;;;;;;20.00;18.00;;;;;24.47;38.45;101785.92;110169;1261;57315;-65
2023/10/03 18:50:10;;;;;;;;;24.67;22.00;;;;;24.65;38.04;101786.70;111225;1242;59812;-65
2023/10/03 18:52:39;;;;;;;;;21.50;21.00;;;;;24.75;37.71;101787.13;111599;1243;54418;-63
2023/10/03 18:55:08;;;;;;;;;23.33;22.00;;;;;24.83;37.44;101786.16;111584;1247;50109;-63
2023/10/03 18:57:35;;;;;;;;;20.75;18.75;;;;;24.94;37.43;101788.05;111428;1247;45026;-64
2023/10/03 19:00:23;;;;;;;;;21.25;19.00;;;;;25.03;37.25;101787.34;111059;1245;57572;-72
2023/10/03 19:02:49;;;;;;;;;19.50;18.00;;;;;25.10;37.06;101790.20;111632;1248;58455;-64
2023/10/03 19:05:17;;;;;;;;;24.00;20.00;;;;;25.16;36.90;101787.66;110992;1251;55963;-64
2023/10/03 19:07:45;;;;;;;;;23.00;20.00;;;;;25.21;36.70;101788.83;111156;1244;50804;-67
2023/10/03 19:10:14;;;;;;;;;22.00;20.25;;;;;25.24;36.58;101786.97;111154;1248;46005;-65
2023/10/03 19:12:42;;;;;;;;;18.00;17.67;;;;;25.24;36.52;101786.89;110797;1247;58752;-63
2023/10/03 19:15:10;;;;;;;;;20.75;19.50;;;;;25.23;36.45;101784.29;111039;1244;59242;-63
2023/10/03 19:17:36;;;;;;;;;23.25;20.00;;;;;25.24;36.39;101780.25;111089;1248;56276;-64
2023/10/03 19:20:06;;;;;;;;;17.75;14.25;;;;;25.24;36.33;101782.19;111044;1248;49986;-61
2023/10/03 19:22:35;;;;;;;;;21.75;18.00;;;;;25.27;36.16;101776.13;110950;1245;45111;-62
2023/10/03 19:25:03;;;;;;;;;23.00;17.75;;;;;25.28;35.92;101780.09;110922;1245;58249;-63
2023/10/03 19:27:30;;;;;;;;;20.00;18.50;;;;;25.27;35.85;101776.94;110775;1247;60707;-62
2023/10/03 19:29:57;;;;;;;;;20.00;16.33;;;;;25.26;35.70;101780.16;111133;1245;54876;-64
2023/10/03 19:32:24;;;;;;;;;20.50;18.50;;;;;25.25;35.60;101778.85;110916;1246;50666;-63
2023/10/03 19:34:51;;;;;;;;;20.00;16.50;;;;;25.26;35.48;101776.80;110916;1240;45785;-66
2023/10/03 19:37:18;;;;;;;;;18.00;16.00;;;;;25.27;35.40;101777.21;111012;1244;58434;-63
2023/10/03 19:39:45;;;;;;;;;20.00;16.67;;;;;25.28;35.28;101773.07;110968;1241;59524;-63
2023/10/03 19:42:12;;;;;;;;;20.00;18.00;;;;;25.28;35.13;101769.58;110910;1246;55200;-63
2023/10/03 19:44:39;;;;;;;;;17.67;15.00;;;;;25.28;35.10;101770.04;111188;1244;50647;-63
2023/10/03 19:47:05;;;;;;;;;18.00;17.00;;;;;25.28;35.08;101770.37;110931;1245;47095;-63
2023/10/03 19:49:33;;;;;;;;;19.50;18.00;;;;;25.28;35.04;101764.55;111135;1244;58137;-62
2023/10/03 19:52:00;;;;;;;;;18.00;16.75;;;;;25.28;35.02;101762.38;111235;1241;58934;-63
2023/10/03 19:54:30;;;;;;;;;20.75;17.50;;;;;25.29;34.94;101760.18;110994;1247;54659;-64
2023/10/03 19:56:58;;;;;;;;;17.50;17.00;;;;;25.30;34.83;101753.67;110901;1250;51092;-63
2023/10/03 19:59:25;;;;;;;;;15.75;14.75;;;;;25.34;34.75;101749.21;111229;1244;45955;-63
2023/10/03 20:01:55;;;;;;;;;17.25;16.00;;;;;25.36;34.76;101753.30;111138;1241;59008;-63
2023/10/03 20:04:22;;;;;;;;;17.50;16.25;;;;;25.37;34.70;101749.73;110986;1246;59439;-64
2023/10/03 20:06:49;;;;;;;;;19.00;16.75;;;;;25.38;34.58;101751.46;111408;1244;55763;-65
2023/10/03 20:09:16;;;;;;;;;19.00;16.00;;;;;25.39;34.50;101747.76;111121;1249;50125;-64
2023/10/03 20:11:46;;;;;;;;;20.00;18.50;;;;;25.40;34.41;101747.27;111137;1246;45666;-64
2023/10/03 20:14:14;;;;;;;;;17.00;15.75;;;;;25.40;34.37;101744.70;110965;1247;58192;-64
2023/10/03 20:16:41;;;;;;;;;17.25;15.00;;;;;25.39;34.35;101743.27;111992;1246;59704;-66
2023/10/03 20:19:08;;;;;;;;;16.67;14.00;;;;;25.41;34.35;101740.20;111712;1247;54620;-63
2023/10/03 20:21:36;;;;;;;;;19.00;18.00;;;;;25.53;34.08;101742.37;111404;1245;50342;-62
2023/10/03 20:24:03;;;;;;;;;19.50;15.50;;;;;25.55;33.92;101738.31;111988;1250;45084;-63
2023/10/03 20:26:30;;;;;;;;;16.33;14.00;;;;;25.53;34.02;101738.55;111375;1242;58404;-64
2023/10/03 20:29:00;;;;;;;;;18.25;15.50;;;;;25.56;33.90;101743.06;111072;1246;58576;-63
2023/10/03 20:31:26;;;;;;;;;19.25;17.00;;;;;25.51;33.91;101738.22;110941;1248;55046;-64
2023/10/03 20:33:54;;;;;;;;;15.25;13.00;;;;;25.44;33.96;101735.33;110811;1250;49952;-63
2023/10/03 20:36:21;;;;;;;;;15.00;14.00;;;;;25.37;34.06;101732.48;110882;1249;45408;-65
2023/10/03 20:38:48;;;;;;;;;18.50;14.50;;;;;25.30;34.14;101730.66;110989;1244;57677;-64
2023/10/03 20:41:15;;;;;;;;;16.00;13.00;;;;;25.25;34.22;101727.30;111016;1248;59696;-63
2023/10/03 20:43:42;;;;;;;;;16.00;14.67;;;;;25.22;34.28;101727.35;110771;1247;54583;-65
2023/10/03 20:46:14;;;;;;;;;19.25;16.00;;;;;25.18;34.31;101726.66;110794;1247;49756;-63
2023/10/03 20:48:42;;;;;;;;;15.67;15.00;;;;;25.16;34.35;101728.21;110719;1247;45120;-63
2023/10/03 20:51:22;;;;;;;;;17.75;17.25;;;;;25.13;34.41;101729.41;110682;1248;58696;-63
2023/10/03 20:53:51;;;;;;;;;17.00;15.00;;;;;25.11;34.45;101724.42;110694;1247;58720;-64
2023/10/03 20:56:18;;;;;;;;;18.50;14.75;;;;;25.10;34.46;101730.86;111046;1248;54900;-63
2023/10/03 20:58:46;;;;;;;;;19.75;16.25;;;;;25.09;34.45;101726.66;110934;1250;50218;-64
2023/10/03 21:01:13;;;;;;;;;19.00;16.00;;;;;25.07;34.47;101727.05;110863;1245;45011;-64
2023/10/03 21:03:40;;;;;;;;;18.25;15.50;;;;;25.06;34.50;101727.45;110763;1250;57377;-64
2023/10/03 21:06:08;;;;;;;;;19.75;16.75;;;;;25.05;34.52;101729.59;111093;1243;59313;-65
2023/10/03 21:08:35;;;;;;;;;15.50;14.25;;;;;25.03;34.55;101728.16;110800;1245;54369;-64
2023/10/03 21:11:02;;;;;;;;;17.50;16.00;;;;;25.02;34.56;101727.95;110728;1250;50540;-64
2023/10/03 21:13:33;;;;;;;;;16.00;15.00;;;;;25.01;34.54;101728.02;111066;1248;45802;-63
2023/10/03 21:16:04;;;;;;;;;21.50;17.00;;;;;25.02;34.57;101735.02;110890;1248;57224;-64
2023/10/03 21:18:32;;;;;;;;;17.50;15.75;;;;;25.01;34.56;101733.42;110921;1248;58516;-64
2023/10/03 21:20:59;;;;;;;;;17.00;13.75;;;;;25.00;34.57;101726.68;111019;1244;55844;-64
2023/10/03 21:23:26;;;;;;;;;18.25;17.00;;;;;25.01;34.57;101725.18;110808;1245;50054;-62
2023/10/03 21:25:53;;;;;;;;;18.25;15.50;;;;;25.00;34.57;101719.39;110936;1241;45679;-63
2023/10/03 21:28:19;;;;;;;;;17.75;15.00;;;;;24.99;34.56;101722.20;110965;1246;57938;-64
2023/10/03 21:30:46;;;;;;;;;19.25;14.25;;;;;24.98;34.59;101718.41;110791;1250;59208;-64
2023/10/03 21:33:12;;;;;;;;;15.00;14.00;;;;;24.96;34.59;101718.23;110870;1244;55762;-64
2023/10/03 21:35:39;;;;;;;;;15.00;15.00;;;;;24.96;34.61;101718.27;110797;1250;50481;-64
2023/10/03 21:38:06;;;;;;;;;18.75;16.00;;;;;24.96;34.60;101710.66;110743;1247;46696;-63
2023/10/03 21:40:33;;;;;;;;;16.00;14.25;;;;;24.95;34.59;101712.93;111000;1244;57814;-63
2023/10/03 21:43:01;;;;;;;;;18.00;16.50;;;;;24.95;34.56;101714.56;110824;1246;59349;-66
2023/10/03 21:45:28;;;;;;;;;18.00;16.33;;;;;24.95;34.55;101710.61;111198;1244;55374;-63
2023/10/03 21:47:55;;;;;;;;;18.00;14.00;;;;;24.96;34.53;101707.76;111079;1246;49933;-64
2023/10/03 21:50:22;;;;;;;;;17.25;14.00;;;;;24.97;34.51;101705.80;110870;1250;45011;-63
2023/10/03 21:52:48;;;;;;;;;16.75;14.75;;;;;24.97;34.50;101706.05;111145;1247;57660;-64
2023/10/03 21:55:16;;;;;;;;;17.00;15.00;;;;;24.96;34.49;101710.50;111011;1248;58591;-64
2023/10/03 21:57:44;;;;;;;;;16.75;15.50;;;;;24.95;34.50;101708.25;110985;1245;54393;-63
2023/10/03 22:00:34;;;;;;;;;17.50;15.00;;;;;24.94;34.53;101708.35;111011;1247;49672;-62
2023/10/03 22:03:04;;;;;;;;;16.00;13.75;;;;;24.94;34.55;101711.45;111034;1246;46161;-65
2023/10/03 22:05:32;;;;;;;;;17.50;16.00;;;;;24.94;34.53;101711.84;110686;1247;58571;-64
2023/10/03 22:08:00;;;;;;;;;16.75;15.75;;;;;24.95;34.51;101711.01;110690;1247;59206;-63
2023/10/03 22:10:29;;;;;;;;;16.75;13.50;;;;;24.94;34.52;101709.22;111724;1249;55227;-64
2023/10/03 22:12:57;;;;;;;;;13.25;12.00;;;;;25.00;34.53;101702.43;110930;1253;51305;-64
2023/10/03 22:15:24;;;;;;;;;16.50;15.00;;;;;25.14;34.21;101701.95;110673;1247;45555;-66
2023/10/03 22:17:51;;;;;;;;;15.67;13.67;;;;;25.16;34.08;101699.52;110609;1244;58359;-64
2023/10/03 22:20:18;;;;;;;;;19.67;16.00;;;;;25.12;34.11;101701.93;110657;1250;58823;-63
2023/10/03 22:22:45;;;;;;;;;17.75;14.25;;;;;25.08;34.15;101700.35;110644;1246;54414;-61
2023/10/03 22:25:12;;;;;;;;;15.67;14.33;;;;;25.03;34.23;101700.42;110627;1248;50067;-64
2023/10/03 22:27:39;;;;;;;;;16.00;13.00;;;;;24.99;34.28;101701.46;110577;1248;45161;-63
2023/10/03 22:30:11;;;;;;;;;14.00;12.75;;;;;24.97;34.34;101699.35;110647;1250;58269;-63
2023/10/03 22:32:38;;;;;;;;;17.67;14.67;;;;;24.94;34.36;101696.42;110761;1250;58742;-63
2023/10/03 22:35:06;;;;;;;;;19.00;16.25;;;;;24.93;34.39;101696.81;110702;1244;55972;-63
2023/10/03 22:37:33;;;;;;;;;18.00;16.33;;;;;24.90;34.43;101696.04;110625;1253;50363;-64
2023/10/03 22:40:03;;;;;;;;;18.50;16.75;;;;;24.89;34.43;101689.86;110823;1247;45913;-64
2023/10/03 22:42:30;;;;;;;;;18.50;14.50;;;;;24.87;34.45;101696.79;110842;1247;58342;-64
2023/10/03 22:44:57;;;;;;;;;15.00;14.00;;;;;24.85;34.53;101693.98;110967;1247;59066;-63
2023/10/03 22:47:24;;;;;;;;;13.25;12.50;;;;;24.84;34.52;101695.21;110802;1246;55100;-64
2023/10/03 22:49:51;;;;;;;;;17.50;14.00;;;;;24.82;34.54;101692.16;110936;1251;50496;-64
2023/10/03 22:52:19;;;;;;;;;15.25;13.00;;;;;24.81;34.56;101691.43;110765;1246;45907;-63
2023/10/03 22:54:46;;;;;;;;;17.50;13.00;;;;;24.81;34.56;101692.05;110687;1244;58321;-61
2023/10/03 22:57:13;;;;;;;;;17.00;14.50;;;;;24.80;34.59;101688.55;110694;1245;58837;-64
2023/10/03 22:59:41;;;;;;;;;16.25;14.50;;;;;24.78;34.62;101687.48;110510;1248;54764;-64
2023/10/03 23:02:07;;;;;;;;;14.00;12.75;;;;;24.77;34.63;101687.07;110386;1253;50136;-62
2023/10/03 23:04:34;;;;;;;;;17.33;14.67;;;;;24.77;34.64;101686.73;110477;1253;45944;-63
2023/10/03 23:07:05;;;;;;;;;16.50;13.75;;;;;24.76;34.67;101683.77;110565;1252;58036;-63
2023/10/03 23:09:31;;;;;;;;;15.00;13.25;;;;;24.74;34.67;101680.50;110331;1249;58933;-62
2023/10/03 23:11:59;;;;;;;;;14.25;13.00;;;;;24.73;34.70;101674.85;110729;1247;55103;-64
2023/10/03 23:14:26;;;;;;;;;16.00;13.33;;;;;24.73;34.70;101672.92;110536;1250;50360;-63
2023/10/03 23:16:52;;;;;;;;;16.33;13.33;;;;;24.72;34.69;101670.47;110363;1253;45968;-63
2023/10/03 23:19:19;;;;;;;;;17.50;16.00;;;;;24.72;34.71;101666.23;110444;1249;57487;-64
2023/10/03 23:21:49;;;;;;;;;19.33;17.00;;;;;24.71;34.71;101659.85;110706;1250;59137;-63
2023/10/03 23:24:16;;;;;;;;;18.67;14.67;;;;;24.70;34.73;101663.52;110628;1249;55143;-64
2023/10/03 23:26:43;;;;;;;;;16.67;15.00;;;;;24.70;34.75;101660.10;110680;1253;50800;-63
2023/10/03 23:29:10;;;;;;;;;15.67;13.67;;;;;24.70;34.74;101656.93;110640;1249;46116;-63
2023/10/03 23:31:37;;;;;;;;;16.00;14.00;;;;;24.69;34.74;101653.59;110924;1247;57834;-63
2023/10/03 23:34:04;;;;;;;;;17.25;14.75;;;;;24.68;34.74;101647.96;110971;1247;58559;-63
2023/10/03 23:36:31;;;;;;;;;12.25;11.50;;;;;24.68;34.75;101645.30;111169;1247;55181;-69
2023/10/03 23:38:59;;;;;;;;;18.00;14.00;;;;;24.67;34.78;101645.59;110851;1250;50354;-63
2023/10/03 23:41:29;;;;;;;;;13.00;12.67;;;;;24.67;34.77;101638.39;110820;1246;45843;-63
2023/10/03 23:43:56;;;;;;;;;17.00;15.00;;;;;24.66;34.77;101633.77;110816;1248;57837;-64
2023/10/03 23:46:23;;;;;;;;;14.33;13.33;;;;;24.66;34.79;101631.23;111140;1248;58673;-63
2023/10/03 23:48:50;;;;;;;;;16.50;14.75;;;;;24.66;34.77;101626.45;111130;1245;55539;-62
2023/10/03 23:51:17;;;;;;;;;15.00;12.75;;;;;24.65;34.78;101628.52;111034;1243;50434;-64
2023/10/03 23:53:45;;;;;;;;;19.50;14.50;;;;;24.65;34.78;101623.33;111164;1248;46030;-63
2023/10/03 23:56:12;;;;;;;;;15.75;14.75;;;;;24.64;34.80;101625.64;111147;1244;58357;-63
2023/10/03 23:58:44;;;;;;;;;14.50;12.75;;;;;24.63;34.79;101621.77;111215;1246;58522;-64
